Time;durP1;ratioP1;P1;durP2;ratioP2;P2;SDS_P1;SDS_P2;PMS_P1;PMS_P2;Temp;Humidity;BMP_temperature;BMP_pressure;BME280_temperature;BME280_humidity;BME280_pressure;Samples;Min_cycle;Max_cycle;Signal;HPM_P1;HPM_P2
2022/09/07 00:00:54;;;;;;;3.78;1.35;;;18.00;99.90;;;;;;5101009;28;20032;-52
2022/09/07 00:03:20;;;;;;;7.20;2.17;;;18.10;99.90;;;;;;5100560;28;20051;-58
2022/09/07 00:05:48;;;;;;;7.70;1.60;;;18.10;99.90;;;;;;5095714;28;20044;-52
2022/09/07 00:08:15;;;;;;;5.03;1.92;;;18.00;99.90;;;;;;5103017;28;20023;-55
2022/09/07 00:10:41;;;;;;;4.20;1.88;;;18.00;99.90;;;;;;5101909;28;20045;-52
2022/09/07 00:13:07;;;;;;;6.38;1.55;;;17.90;99.90;;;;;;5101293;28;20103;-55
2022/09/07 00:15:33;;;;;;;9.38;1.80;;;17.90;99.90;;;;;;5083485;28;20039;-55
2022/09/07 00:17:59;;;;;;;7.97;1.55;;;18.00;99.90;;;;;;5098946;28;20401;-54
2022/09/07 00:20:25;;;;;;;4.20;2.53;;;17.90;99.90;;;;;;5093694;28;20034;-55
2022/09/07 00:22:50;;;;;;;5.68;1.98;;;17.90;99.90;;;;;;5096770;28;20028;-52
2022/09/07 00:25:16;;;;;;;5.50;1.67;;;17.90;99.90;;;;;;5096013;28;20024;-54
2022/09/07 00:27:41;;;;;;;8.93;1.80;;;17.90;99.90;;;;;;5096658;28;20050;-54
2022/09/07 00:30:07;;;;;;;5.78;1.77;;;17.90;99.90;;;;;;5096978;28;20039;-56
2022/09/07 00:32:33;;;;;;;6.65;2.22;;;17.80;99.90;;;;;;5101700;28;20028;-55
2022/09/07 00:34:59;;;;;;;2.72;1.77;;;17.90;99.90;;;;;;5107436;22;20035;-58
2022/09/07 00:37:24;;;;;;;8.98;2.25;;;18.00;99.90;;;;;;5076505;28;20378;-62
2022/09/07 00:39:50;;;;;;;9.02;2.50;;;18.00;99.90;;;;;;5079383;28;20420;-61
2022/09/07 00:42:20;;;;;;;7.00;2.13;;;17.90;99.90;;;;;;5081353;28;20036;-62
2022/09/07 00:45:16;;;;;;;11.25;3.10;;;17.90;99.90;;;;;;5082108;28;20032;-62
2022/09/07 00:47:47;;;;;;;6.15;1.92;;;18.00;99.90;;;;;;5061504;28;20645;-62
2022/09/07 00:50:17;;;;;;;4.28;1.98;;;18.00;99.90;;;;;;5058352;28;20060;-62
2022/09/07 00:52:46;;;;;;;4.75;2.20;;;17.90;99.90;;;;;;5061153;28;20089;-61
2022/09/07 00:55:14;;;;;;;6.07;2.58;;;17.90;99.90;;;;;;5067042;28;20038;-62
2022/09/07 00:57:43;;;;;;;6.95;2.20;;;17.90;99.90;;;;;;5059189;28;20475;-61
2022/09/07 01:00:09;;;;;;;8.52;2.78;;;17.90;99.90;;;;;;5065081;28;20032;-59
2022/09/07 01:02:35;;;;;;;6.57;2.28;;;17.90;99.90;;;;;;5066274;28;20075;-62
2022/09/07 01:05:09;;;;;;;6.72;2.05;;;17.90;99.90;;;;;;5062228;28;20031;-61
2022/09/07 01:07:35;;;;;;;;;;;17.90;99.90;;;;;;5063787;28;20029;-61
2022/09/07 01:10:01;;;;;;;8.65;2.60;;;17.90;99.90;;;;;;5068508;28;20380;-61
2022/09/07 01:12:26;;;;;;;4.30;2.53;;;17.90;99.90;;;;;;5061323;28;20025;-61
2022/09/07 01:14:53;;;;;;;8.32;2.60;;;17.80;99.90;;;;;;5060035;28;20035;-60
2022/09/07 01:17:44;;;;;;;9.70;3.10;;;17.80;99.90;;;;;;5060062;28;20025;-59
2022/09/07 01:20:40;;;;;;;7.75;2.40;;;17.90;99.90;;;;;;5065524;28;20375;-61
2022/09/07 01:23:24;;;;;;;5.47;2.13;;;17.90;99.90;;;;;;5067129;28;20055;-61
2022/09/07 01:26:34;;;;;;;3.42;2.13;;;17.90;99.90;;;;;;5069178;28;20461;-60
2022/09/07 01:29:13;;;;;;;12.63;2.70;;;17.80;99.90;;;;;;5068309;28;20082;-60
2022/09/07 01:31:57;;;;;;;6.32;2.60;;;17.80;99.90;;;;;;5064944;28;20641;-61
2022/09/07 01:34:25;;;;;;;8.20;2.50;;;17.80;99.90;;;;;;5068007;28;20106;-61
2022/09/07 01:37:18;;;;;;;5.63;2.50;;;17.80;99.90;;;;;;5063777;28;20032;-61
2022/09/07 01:39:51;;;;;;;9.13;3.40;;;17.80;99.90;;;;;;5062714;28;20113;-61
2022/09/07 01:42:22;;;;;;;6.47;2.47;;;17.80;99.90;;;;;;5062477;28;20043;-61
2022/09/07 01:44:56;;;;;;;7.82;2.45;;;17.80;99.90;;;;;;5066247;28;20029;-59
2022/09/07 01:47:31;;;;;;;3.92;1.83;;;17.70;99.90;;;;;;5063179;28;20027;-61
2022/09/07 01:50:14;;;;;;;4.15;1.83;;;17.80;99.90;;;;;;5063109;28;20029;-61
2022/09/07 01:53:00;;;;;;;4.47;1.73;;;17.70;99.90;;;;;;5065883;28;20026;-61
2022/09/07 01:55:28;;;;;;;6.22;1.80;;;17.70;99.90;;;;;;5066503;28;20100;-61
2022/09/07 01:58:00;;;;;;;10.85;2.72;;;17.70;99.90;;;;;;5065221;28;20512;-60
2022/09/07 02:00:26;;;;;;;11.07;2.60;;;17.70;99.90;;;;;;5061107;28;20032;-60
2022/09/07 02:02:57;;;;;;;8.20;2.75;;;17.70;99.90;;;;;;5062584;28;20020;-60
2022/09/07 02:05:49;;;;;;;4.13;2.55;;;17.70;99.90;;;;;;5060171;28;20025;-60
2022/09/07 02:08:25;;;;;;;7.50;2.45;;;17.70;99.90;;;;;;5066960;28;20106;-60
2022/09/07 02:10:59;;;;;;;5.97;2.55;;;17.60;99.90;;;;;;5063588;28;20032;-61
2022/09/07 02:13:38;;;;;;;6.65;2.50;;;17.60;99.90;;;;;;5065651;28;20035;-60
2022/09/07 02:16:17;;;;;;;9.38;2.90;;;17.60;99.90;;;;;;5061497;28;20031;-60
2022/09/07 02:18:52;;;;;;;8.65;2.35;;;17.50;99.90;;;;;;5065566;28;20095;-61
2022/09/07 02:21:22;;;;;;;7.00;2.20;;;17.50;99.90;;;;;;5062095;28;20020;-61
2022/09/07 02:23:55;;;;;;;6.30;2.03;;;17.50;99.90;;;;;;5066181;28;20033;-61
2022/09/07 02:26:23;;;;;;;7.45;2.20;;;17.50;99.90;;;;;;5068428;28;20029;-61
2022/09/07 02:28:49;;;;;;;7.63;2.47;;;17.50;99.90;;;;;;5063873;28;20036;-61
2022/09/07 02:31:15;;;;;;;5.40;2.60;;;17.40;99.90;;;;;;5066715;28;20041;-60
2022/09/07 02:33:41;;;;;;;10.10;2.92;;;17.30;99.90;;;;;;5067452;28;20056;-60
2022/09/07 02:36:10;;;;;;;9.50;3.35;;;17.30;99.90;;;;;;5063582;28;20035;-60
2022/09/07 02:38:35;;;;;;;8.90;3.78;;;17.30;99.90;;;;;;5065179;28;20025;-61
2022/09/07 02:41:03;;;;;;;5.50;2.50;;;17.30;99.90;;;;;;5066600;28;20077;-61
2022/09/07 02:43:30;;;;;;;5.75;2.58;;;17.30;99.90;;;;;;5063434;28;20029;-60
2022/09/07 02:46:17;;;;;;;12.55;3.17;;;17.30;99.90;;;;;;5064830;28;20020;-61
2022/09/07 02:49:15;;;;;;;9.38;3.03;;;17.20;99.90;;;;;;5064395;28;20032;-61
2022/09/07 02:51:59;;;;;;;5.90;2.95;;;17.20;99.90;;;;;;5059999;28;20021;-61
2022/09/07 02:55:07;;;;;;;5.30;3.10;;;17.20;99.90;;;;;;5066337;28;20482;-60
2022/09/07 02:58:10;;;;;;;6.35;2.80;;;17.20;99.90;;;;;;5064357;28;20037;-61
2022/09/07 03:01:11;;;;;;;9.60;2.75;;;17.20;99.90;;;;;;5066868;28;20020;-60
2022/09/07 03:04:15;;;;;;;5.78;2.35;;;17.20;99.90;;;;;;5027072;28;20588;-59
2022/09/07 03:06:47;;;;;;;6.35;2.47;;;17.10;99.90;;;;;;5050300;28;20048;-61
2022/09/07 03:09:21;;;;;;;6.68;2.50;;;17.10;99.90;;;;;;5063006;28;20024;-60
2022/09/07 03:11:48;;;;;;;7.60;2.85;;;17.10;99.90;;;;;;5060365;28;20036;-59
2022/09/07 03:14:19;;;;;;;3.83;2.33;;;17.10;99.90;;;;;;5062927;28;20534;-60
2022/09/07 03:16:48;;;;;;;5.65;2.17;;;17.10;99.90;;;;;;5060046;28;20474;-60
2022/09/07 03:19:13;;;;;;;6.28;3.05;;;17.10;99.90;;;;;;5067084;28;20035;-60
2022/09/07 03:21:39;;;;;;;8.32;3.05;;;17.00;99.90;;;;;;5062729;28;20604;-60
2022/09/07 03:24:05;;;;;;;4.60;2.47;;;17.00;99.90;;;;;;5066189;28;20115;-58
2022/09/07 03:26:31;;;;;;;8.27;2.65;;;16.90;99.90;;;;;;5058380;28;20621;-60
2022/09/07 03:28:56;;;;;;;7.47;2.70;;;16.90;99.90;;;;;;5064100;28;20051;-60
2022/09/07 03:31:22;;;;;;;4.35;2.90;;;16.90;99.90;;;;;;5065661;28;20090;-60
2022/09/07 03:33:47;;;;;;;8.27;3.17;;;17.00;99.90;;;;;;5064717;28;20115;-60
2022/09/07 03:36:13;;;;;;;6.65;3.40;;;17.00;99.90;;;;;;5064217;28;20037;-60
2022/09/07 03:38:38;;;;;;;11.30;3.50;;;16.90;99.90;;;;;;5063289;28;20082;-59
2022/09/07 03:41:05;;;;;;;8.13;3.38;;;16.90;99.90;;;;;;5063290;28;20036;-61
2022/09/07 03:43:32;;;;;;;9.23;3.10;;;16.90;99.90;;;;;;5066014;28;20038;-61
2022/09/07 03:46:04;;;;;;;13.23;3.90;;;16.80;99.90;;;;;;5060490;28;20028;-60
2022/09/07 03:48:30;;;;;;;4.80;3.05;;;16.80;99.90;;;;;;5065444;28;20032;-60
2022/09/07 03:51:05;;;;;;;9.32;3.67;;;16.80;99.90;;;;;;5061397;28;20036;-60
2022/09/07 03:53:39;;;;;;;8.45;4.20;;;16.80;99.90;;;;;;5053940;28;20059;-60
2022/09/07 03:56:15;;;;;;;11.15;3.63;;;16.80;99.90;;;;;;5063143;28;20028;-61
2022/09/07 03:58:40;;;;;;;13.35;4.22;;;16.70;99.90;;;;;;5062186;28;20028;-60
2022/09/07 04:01:14;;;;;;;7.88;4.05;;;16.60;99.90;;;;;;5061292;28;20199;-59
2022/09/07 04:03:39;;;;;;;12.07;3.97;;;16.60;99.90;;;;;;5062600;28;20411;-60
2022/09/07 04:06:05;;;;;;;9.48;4.10;;;16.60;99.90;;;;;;5063118;28;20074;-60
2022/09/07 04:08:33;;;;;;;9.75;3.97;;;16.60;99.90;;;;;;5063383;28;20025;-60
2022/09/07 04:11:00;;;;;;;11.45;4.28;;;16.60;99.90;;;;;;5062250;28;20074;-60
2022/09/07 04:13:27;;;;;;;15.65;4.70;;;16.60;99.90;;;;;;5061314;28;20032;-60
2022/09/07 04:15:53;;;;;;;8.32;4.43;;;16.60;99.90;;;;;;5062017;28;20140;-59
2022/09/07 04:18:19;;;;;;;18.60;5.20;;;16.50;99.90;;;;;;5064679;28;20059;-61
2022/09/07 04:20:44;;;;;;;13.68;4.93;;;16.50;99.90;;;;;;5063717;28;20064;-61
2022/09/07 04:23:10;;;;;;;13.60;5.40;;;16.50;99.90;;;;;;5063620;28;20082;-61
2022/09/07 04:25:36;;;;;;;10.52;5.20;;;16.50;99.90;;;;;;5066079;28;20024;-60
2022/09/07 04:28:02;;;;;;;11.55;6.03;;;16.50;99.90;;;;;;5063586;28;20116;-60
2022/09/07 04:30:27;;;;;;;18.35;7.28;;;16.40;99.90;;;;;;5062253;28;20025;-60
2022/09/07 04:32:53;;;;;;;20.27;7.05;;;16.50;99.90;;;;;;5063937;28;20495;-59
2022/09/07 04:35:18;;;;;;;19.33;7.47;;;16.50;99.90;;;;;;5061794;28;20169;-61
2022/09/07 04:37:44;;;;;;;16.75;8.98;;;16.50;99.90;;;;;;5060723;28;20036;-61
2022/09/07 04:40:11;;;;;;;19.65;7.55;;;16.50;99.90;;;;;;5061732;28;20081;-60
2022/09/07 04:42:36;;;;;;;18.35;7.80;;;16.50;99.90;;;;;;5061668;28;20016;-60
2022/09/07 04:45:03;;;;;;;16.60;8.05;;;16.50;99.90;;;;;;5063174;28;20034;-59
2022/09/07 04:47:29;;;;;;;22.50;8.32;;;16.50;99.90;;;;;;5062231;28;20021;-60
2022/09/07 04:49:55;;;;;;;22.65;9.50;;;16.50;99.90;;;;;;5061289;28;20672;-59
2022/09/07 04:52:20;;;;;;;18.63;8.10;;;16.50;99.90;;;;;;5061720;28;20041;-58
2022/09/07 04:54:49;;;;;;;18.42;8.55;;;16.50;99.90;;;;;;5057577;28;20041;-60
2022/09/07 04:57:17;;;;;;;18.92;8.73;;;16.50;99.90;;;;;;5059912;28;20090;-60
2022/09/07 04:59:42;;;;;;;21.70;9.48;;;16.50;99.90;;;;;;5059517;28;20545;-60
2022/09/07 05:02:08;;;;;;;18.00;8.48;;;16.50;99.90;;;;;;5059855;28;20054;-60
2022/09/07 05:04:34;;;;;;;16.98;8.18;;;16.50;99.90;;;;;;5059471;28;20029;-60
2022/09/07 05:07:00;;;;;;;18.02;8.95;;;16.50;99.90;;;;;;5064070;28;20028;-60
2022/09/07 05:09:26;;;;;;;22.25;8.35;;;16.50;99.90;;;;;;5064079;28;20028;-60
2022/09/07 05:11:51;;;;;;;22.33;8.13;;;16.40;99.90;;;;;;5060809;28;20712;-59
2022/09/07 05:14:17;;;;;;;19.50;7.10;;;16.40;99.90;;;;;;5064077;28;20056;-60
2022/09/07 05:16:43;;;;;;;18.45;8.48;;;16.30;99.90;;;;;;5064683;28;20020;-59
2022/09/07 05:19:11;;;;;;;17.02;7.15;;;16.30;99.90;;;;;;5060818;28;20028;-60
2022/09/07 05:21:37;;;;;;;21.77;7.90;;;16.30;99.90;;;;;;5063083;28;20393;-60
2022/09/07 05:24:04;;;;;;;16.60;8.15;;;16.30;99.90;;;;;;5062785;28;20024;-60
2022/09/07 05:26:32;;;;;;;16.95;8.20;;;16.40;99.90;;;;;;5055412;28;20028;-60
2022/09/07 05:29:02;;;;;;;17.08;7.38;;;16.40;99.90;;;;;;5064814;28;20040;-60
2022/09/07 05:31:28;;;;;;;22.77;8.20;;;16.40;99.90;;;;;;5064949;28;20020;-60
2022/09/07 05:33:58;;;;;;;18.88;7.25;;;16.40;99.90;;;;;;5062752;28;20040;-60
2022/09/07 05:36:28;;;;;;;25.10;8.98;;;16.40;99.90;;;;;;5060751;28;20047;-60
2022/09/07 05:38:55;;;;;;;25.20;10.50;;;16.40;99.90;;;;;;5063353;28;20191;-60
2022/09/07 05:41:23;;;;;;;25.83;10.80;;;16.40;99.90;;;;;;5061979;28;20032;-59
2022/09/07 05:43:49;;;;;;;25.52;10.90;;;16.40;99.90;;;;;;5064714;28;20680;-59
2022/09/07 05:46:15;;;;;;;36.42;15.57;;;16.50;99.90;;;;;;5067716;28;20028;-60
2022/09/07 05:48:42;;;;;;;42.20;16.83;;;16.60;99.90;;;;;;5068232;28;20122;-60
2022/09/07 05:51:08;;;;;;;53.50;17.63;;;16.60;99.90;;;;;;5065357;28;20028;-60
2022/09/07 05:53:34;;;;;;;51.85;17.42;;;16.70;99.90;;;;;;5063120;28;20051;-60
2022/09/07 05:56:00;;;;;;;35.25;16.60;;;16.70;99.90;;;;;;5060698;28;20056;-61
2022/09/07 05:58:27;;;;;;;37.50;17.00;;;16.80;99.90;;;;;;5065055;28;20666;-61
2022/09/07 06:00:59;;;;;;;39.00;16.27;;;16.80;99.90;;;;;;5059309;28;20020;-61
2022/09/07 06:03:25;;;;;;;36.85;16.25;;;16.80;99.90;;;;;;5062963;28;20051;-61
2022/09/07 06:06:23;;;;;;;38.45;15.40;;;16.90;99.90;;;;;;5067416;28;20482;-60
2022/09/07 06:08:51;;;;;;;50.45;17.88;;;16.90;99.90;;;;;;5030066;28;20093;-61
2022/09/07 06:11:20;;;;;;;37.58;15.65;;;16.90;99.90;;;;;;5061750;28;20032;-59
2022/09/07 06:13:46;;;;;;;39.83;15.40;;;16.90;99.90;;;;;;5065230;28;20030;-60
2022/09/07 06:16:12;;;;;;;32.42;15.68;;;17.00;99.90;;;;;;5064801;28;20036;-60
2022/09/07 06:18:41;;;;;;;35.70;17.00;;;17.10;99.90;;;;;;5064647;28;20035;-61
2022/09/07 06:21:09;;;;;;;39.60;17.42;;;17.20;99.90;;;;;;5059946;28;20024;-60
2022/09/07 06:23:36;;;;;;;38.50;17.20;;;17.30;99.90;;;;;;5064673;28;20024;-61
2022/09/07 06:26:03;;;;;;;42.20;19.02;;;17.40;99.90;;;;;;5063022;28;20021;-60
2022/09/07 06:28:30;;;;;;;36.65;18.35;;;17.50;99.90;;;;;;5066905;28;20024;-58
2022/09/07 06:31:00;;;;;;;42.30;19.30;;;17.50;99.90;;;;;;5063055;28;20140;-59
2022/09/07 06:33:26;;;;;;;39.10;17.15;;;17.50;99.90;;;;;;5060704;28;20060;-59
2022/09/07 06:35:59;;;;;;;36.88;17.00;;;17.40;99.90;;;;;;5091196;22;20669;-57
2022/09/07 06:38:31;;;;;;;39.63;16.85;;;17.40;99.90;;;;;;5104915;28;20122;-53
2022/09/07 06:41:01;;;;;;;41.35;16.17;;;17.50;99.90;;;;;;5103786;28;20036;-58
2022/09/07 06:43:27;;;;;;;36.88;16.75;;;17.50;99.90;;;;;;5108224;28;20061;-57
2022/09/07 06:45:53;;;;;;;34.25;17.30;;;17.60;99.90;;;;;;5095915;28;20101;-56
2022/09/07 06:48:19;;;;;;;41.15;16.42;;;17.70;99.90;;;;;;5082476;28;20020;-56
2022/09/07 06:50:57;;;;;;;40.50;16.08;;;17.80;99.90;;;;;;5083890;28;20035;-56
2022/09/07 06:53:24;;;;;;;37.28;15.90;;;17.80;99.90;;;;;;5084858;28;20051;-54
2022/09/07 06:55:50;;;;;;;31.17;16.05;;;17.90;99.90;;;;;;5082788;28;20047;-56
2022/09/07 06:58:16;;;;;;;34.20;16.80;;;18.10;99.90;;;;;;5079030;28;20485;-57
2022/09/07 07:00:41;;;;;;;29.10;14.95;;;18.10;99.90;;;;;;5086209;28;20499;-58
2022/09/07 07:03:07;;;;;;;37.35;17.15;;;18.10;99.90;;;;;;5084934;28;20772;-58
2022/09/07 07:05:32;;;;;;;33.42;16.63;;;18.20;99.90;;;;;;5084048;28;20016;-57
2022/09/07 07:07:58;;;;;;;35.03;15.70;;;18.30;99.90;;;;;;5080860;28;20082;-55
2022/09/07 07:10:24;;;;;;;32.13;16.55;;;18.30;99.90;;;;;;5082668;28;20087;-56
2022/09/07 07:12:51;;;;;;;30.10;15.98;;;18.30;99.90;;;;;;5082733;28;20513;-56
2022/09/07 07:15:17;;;;;;;30.48;15.32;;;18.40;99.90;;;;;;5079479;28;20029;-56
2022/09/07 07:17:43;;;;;;;31.52;16.27;;;18.40;99.90;;;;;;5082054;28;20504;-56
2022/09/07 07:20:08;;;;;;;36.45;17.50;;;18.30;99.90;;;;;;5079776;28;20028;-57
2022/09/07 07:22:34;;;;;;;32.92;16.88;;;18.30;99.90;;;;;;5080841;28;20181;-54
2022/09/07 07:25:00;;;;;;;30.23;15.20;;;18.30;99.90;;;;;;5085468;28;20099;-57
2022/09/07 07:27:25;;;;;;;30.15;16.27;;;18.40;99.90;;;;;;5081553;28;20024;-58
2022/09/07 07:29:54;;;;;;;37.75;17.98;;;18.50;99.90;;;;;;5082290;28;20031;-58
2022/09/07 07:32:19;;;;;;;30.15;14.98;;;18.50;99.90;;;;;;5084451;28;20069;-59
2022/09/07 07:34:45;;;;;;;31.98;17.25;;;18.60;99.90;;;;;;5087344;28;20448;-57
2022/09/07 07:37:10;;;;;;;31.17;15.60;;;18.70;99.90;;;;;;5086223;28;20032;-57
2022/09/07 07:39:36;;;;;;;28.40;15.02;;;18.80;99.90;;;;;;5085496;28;20405;-57
2022/09/07 07:42:01;;;;;;;26.05;13.77;;;19.00;99.90;;;;;;5085440;28;20028;-57
2022/09/07 07:44:27;;;;;;;24.73;13.73;;;19.10;99.90;;;;;;5082547;28;20052;-55
2022/09/07 07:46:52;;;;;;;24.35;12.60;;;19.20;99.90;;;;;;5085220;28;20046;-55
2022/09/07 07:49:18;;;;;;;21.38;12.13;;;19.30;99.90;;;;;;5087146;28;20034;-57
2022/09/07 07:51:43;;;;;;;24.35;12.80;;;19.30;99.90;;;;;;5086107;28;20026;-58
2022/09/07 07:54:09;;;;;;;19.35;11.02;;;19.30;99.90;;;;;;5089006;28;20539;-58
2022/09/07 07:56:34;;;;;;;16.58;9.93;;;19.30;99.90;;;;;;5080218;28;20035;-56
2022/09/07 07:59:00;;;;;;;17.05;9.98;;;19.40;99.90;;;;;;5086229;28;20038;-56
2022/09/07 08:01:26;;;;;;;18.77;11.13;;;19.30;99.90;;;;;;5089331;28;20016;-56
2022/09/07 08:03:51;;;;;;;20.88;10.45;;;19.30;99.90;;;;;;5089092;28;20032;-58
2022/09/07 08:06:19;;;;;;;16.13;10.10;;;19.30;99.90;;;;;;5082033;28;20367;-56
2022/09/07 08:08:44;;;;;;;17.75;8.30;;;19.30;99.90;;;;;;5088764;28;20020;-58
2022/09/07 08:11:13;;;;;;;15.95;9.65;;;19.40;99.90;;;;;;5081842;28;20028;-57
2022/09/07 08:13:41;;;;;;;14.52;8.80;;;19.40;99.90;;;;;;5084249;28;20028;-58
2022/09/07 08:16:07;;;;;;;16.98;9.43;;;19.40;99.90;;;;;;5079751;28;20040;-57
2022/09/07 08:18:33;;;;;;;14.18;7.85;;;19.40;99.90;;;;;;5083534;28;20032;-58
2022/09/07 08:21:11;;;;;;;9.23;6.47;;;19.40;99.90;;;;;;5084422;28;20020;-58
2022/09/07 08:23:37;;;;;;;13.18;7.25;;;19.40;99.90;;;;;;5083597;28;20103;-58
2022/09/07 08:26:04;;;;;;;7.55;5.15;;;19.50;99.90;;;;;;5078886;28;20043;-57
2022/09/07 08:28:31;;;;;;;13.50;6.85;;;19.50;99.90;;;;;;5085748;28;20032;-57
2022/09/07 08:30:58;;;;;;;16.92;6.43;;;19.60;99.90;;;;;;5081534;28;20063;-59
2022/09/07 08:33:24;;;;;;;8.32;4.53;;;19.70;99.90;;;;;;5083653;28;20135;-57
2022/09/07 08:35:59;;;;;;;14.05;6.30;;;19.80;99.90;;;;;;5081233;28;20032;-56
2022/09/07 08:38:26;;;;;;;12.57;5.28;;;19.90;99.90;;;;;;5083980;28;20452;-57
2022/09/07 08:40:52;;;;;;;10.90;5.07;;;20.00;99.90;;;;;;5083772;28;20382;-57
2022/09/07 08:43:28;;;;;;;10.15;5.57;;;20.10;99.90;;;;;;5080349;28;20052;-55
2022/09/07 08:46:02;;;;;;;11.07;5.20;;;20.20;99.90;;;;;;5084722;28;20038;-57
2022/09/07 08:48:31;;;;;;;15.32;4.35;;;20.30;99.90;;;;;;5079317;28;20125;-57
2022/09/07 08:51:09;;;;;;;15.02;5.72;;;20.40;99.90;;;;;;5077601;28;20040;-57
2022/09/07 08:53:43;;;;;;;7.32;3.88;;;20.40;99.90;;;;;;5079318;28;20023;-56
2022/09/07 08:56:22;;;;;;;8.07;3.08;;;20.50;99.90;;;;;;5076452;28;20062;-58
2022/09/07 08:58:52;;;;;;;7.80;2.60;;;20.60;99.90;;;;;;5080143;28;20048;-57
2022/09/07 09:01:31;;;;;;;8.82;3.33;;;20.60;99.90;;;;;;5083880;28;20062;-56
2022/09/07 09:03:57;;;;;;;6.72;3.38;;;20.60;99.90;;;;;;5085358;28;20556;-57
2022/09/07 09:06:25;;;;;;;6.35;2.72;;;20.60;99.90;;;;;;5082181;28;20569;-56
2022/09/07 09:09:28;;;;;;;4.60;2.60;;;20.70;99.90;;;;;;5079230;28;20027;-55
2022/09/07 09:12:16;;;;;;;7.07;2.97;;;20.80;99.90;;;;;;5078446;28;20056;-58
2022/09/07 09:15:25;;;;;;;4.20;2.10;;;20.70;99.90;;;;;;5085909;28;20024;-56
2022/09/07 09:18:26;;;;;;;7.22;2.00;;;20.80;99.90;;;;;;5026857;28;20034;-57
2022/09/07 09:20:54;;;;;;;3.10;2.05;;;20.70;99.90;;;;;;5087438;28;20028;-56
2022/09/07 09:23:29;;;;;;;3.25;1.83;;;20.60;99.90;;;;;;5083652;28;20095;-57
2022/09/07 09:25:58;;;;;;;5.90;2.30;;;20.70;99.90;;;;;;5082051;28;20132;-56
2022/09/07 09:28:24;;;;;;;5.25;1.90;;;20.70;99.90;;;;;;5083640;28;20146;-54
2022/09/07 09:30:50;;;;;;;7.15;2.75;;;20.90;99.90;;;;;;5089836;28;20485;-57
2022/09/07 09:33:22;;;;;;;3.83;2.00;;;21.10;99.90;;;;;;5085574;28;20405;-56
2022/09/07 09:35:50;;;;;;;3.72;2.13;;;21.20;99.90;;;;;;5074614;28;20040;-56
2022/09/07 09:38:29;;;;;;;2.50;1.60;;;21.40;99.90;;;;;;5087114;28;20040;-57
2022/09/07 09:41:02;;;;;;;4.32;1.38;;;21.70;99.90;;;;;;5080649;28;20626;-60
2022/09/07 09:43:45;;;;;;;3.10;1.52;;;21.80;99.90;;;;;;5087244;28;20056;-57
2022/09/07 09:46:26;;;;;;;3.38;1.58;;;21.90;99.90;;;;;;5083216;28;20032;-57
2022/09/07 09:49:14;;;;;;;4.72;1.65;;;21.90;99.90;;;;;;5086609;28;20051;-57
2022/09/07 09:51:43;;;;;;;6.07;1.98;;;21.90;99.90;;;;;;5083420;28;20035;-57
2022/09/07 09:54:32;;;;;;;6.15;1.83;;;22.00;99.90;;;;;;5084653;28;20139;-60
2022/09/07 09:56:58;;;;;;;3.67;1.40;;;22.50;99.90;;;;;;5081559;28;20035;-58
2022/09/07 09:59:27;;;;;;;4.05;1.63;;;22.70;99.90;;;;;;5084786;28;20339;-57
2022/09/07 10:01:53;;;;;;;6.35;2.30;;;22.70;99.90;;;;;;5082508;28;20099;-57
2022/09/07 10:04:29;;;;;;;2.92;1.77;;;22.60;99.90;;;;;;5087257;28;20510;-55
2022/09/07 10:07:08;;;;;;;2.70;1.50;;;22.50;99.90;;;;;;5087618;28;20024;-57
2022/09/07 10:09:39;;;;;;;3.97;1.40;;;22.80;99.90;;;;;;5084087;28;20028;-57
2022/09/07 10:12:06;;;;;;;10.30;1.80;;;23.00;99.90;;;;;;5081296;28;20127;-57
2022/09/07 10:14:43;;;;;;;4.00;1.90;;;23.00;99.90;;;;;;5084657;28;20051;-60
2022/09/07 10:17:34;;;;;;;4.72;1.70;;;22.90;99.90;;;;;;5090882;28;20040;-58
2022/09/07 10:20:16;;;;;;;8.85;1.63;;;22.70;99.90;;;;;;5091975;28;20032;-58
2022/09/07 10:22:56;;;;;;;5.60;1.50;;;22.80;99.90;;;;;;5090687;28;20027;-58
2022/09/07 10:25:35;;;;;;;4.35;1.38;;;23.00;99.90;;;;;;5078283;28;20029;-58
2022/09/07 10:28:12;;;;;;;2.72;1.48;;;23.30;99.90;;;;;;5090758;28;20024;-57
2022/09/07 10:31:03;;;;;;;2.10;1.40;;;23.60;99.90;;;;;;5085117;28;20035;-58
2022/09/07 10:33:46;;;;;;;5.78;2.20;;;24.10;99.90;;;;;;5091939;28;20385;-59
2022/09/07 10:36:19;;;;;;;5.68;1.73;;;24.10;99.90;;;;;;5090184;28;20444;-58
2022/09/07 10:38:58;;;;;;;6.32;2.35;;;24.00;99.90;;;;;;5084815;28;20118;-60
2022/09/07 10:41:38;;;;;;;3.28;1.77;;;24.10;99.90;;;;;;5088017;28;20028;-57
2022/09/07 10:44:07;;;;;;;8.60;2.28;;;24.10;99.90;;;;;;5086177;28;20056;-58
2022/09/07 10:47:05;;;;;;;6.47;1.90;;;24.40;99.90;;;;;;5090654;28;20031;-59
2022/09/07 10:49:40;;;;;;;3.17;1.30;;;24.70;99.90;;;;;;5054406;28;20087;-60
2022/09/07 10:52:26;;;;;;;7.40;1.10;;;24.60;99.90;;;;;;5091517;28;20024;-58
2022/09/07 10:55:09;;;;;;;3.45;1.15;;;24.60;99.90;;;;;;5087294;28;20020;-59
2022/09/07 10:57:39;;;;;;;3.10;1.27;;;24.50;99.90;;;;;;5082808;28;20133;-58
2022/09/07 11:00:12;;;;;;;3.50;1.10;;;24.80;99.90;;;;;;5088498;28;20028;-59
2022/09/07 11:03:09;;;;;;;2.67;1.20;;;24.80;99.90;;;;;;5086936;28;20104;-58
2022/09/07 11:05:59;;;;;;;4.32;1.92;;;24.70;99.90;;;;;;5087809;28;20030;-58
2022/09/07 11:08:37;;;;;;;4.63;1.35;;;24.60;99.90;;;;;;5087458;28;20020;-57
2022/09/07 11:11:41;;;;;;;3.58;1.23;;;24.20;99.90;;;;;;5087532;28;20028;-58
2022/09/07 11:14:15;;;;;;;3.15;1.33;;;24.00;99.90;;;;;;5078396;28;20044;-58
2022/09/07 11:16:53;;;;;;;8.80;1.70;;;23.80;99.90;;;;;;5084345;28;20119;-58
2022/09/07 11:19:25;;;;;;;7.13;1.80;;;23.70;99.90;;;;;;5085823;28;20032;-57
2022/09/07 11:22:17;;;;;;;8.60;1.73;;;23.60;99.90;;;;;;5088085;28;20562;-57
2022/09/07 11:25:05;;;;;;;1.55;1.33;;;23.60;99.90;;;;;;5088125;28;20489;-57
2022/09/07 11:27:44;;;;;;;2.33;1.38;;;23.60;99.90;;;;;;5081786;28;20012;-57
2022/09/07 11:30:28;;;;;;;3.88;1.42;;;23.60;99.90;;;;;;5088078;28;20027;-55
2022/09/07 11:33:04;;;;;;;1.80;1.40;;;23.70;99.90;;;;;;5081202;28;20398;-59
2022/09/07 11:35:36;;;;;;;4.78;1.73;;;23.80;99.90;;;;;;5080274;28;20028;-56
2022/09/07 11:38:56;;;;;;;6.72;1.77;;;24.00;99.90;;;;;;5084411;28;20028;-58
2022/09/07 11:41:32;;;;;;;4.68;1.52;;;24.70;99.90;;;;;;5052793;28;20036;-57
2022/09/07 11:44:12;;;;;;;8.38;2.00;;;25.20;99.90;;;;;;5085079;28;20023;-58
2022/09/07 11:46:43;;;;;;;4.88;2.00;;;25.60;99.90;;;;;;5058080;28;20097;-59
2022/09/07 11:49:21;;;;;;;5.10;1.77;;;25.60;99.90;;;;;;5083586;28;20024;-56
2022/09/07 11:52:06;;;;;;;5.60;1.48;;;25.40;99.90;;;;;;5080755;28;20503;-56
2022/09/07 11:54:56;;;;;;;4.13;1.67;;;25.50;99.90;;;;;;5081438;28;20135;-56
2022/09/07 11:57:59;;;;;;;4.20;1.50;;;25.80;99.90;;;;;;5076624;28;20063;-58
2022/09/07 12:00:52;;;;;;;7.75;2.42;;;25.90;99.90;;;;;;5079911;28;20028;-58
2022/09/07 12:03:39;;;;;;;6.45;1.92;;;25.90;99.90;;;;;;5081683;28;20020;-58
2022/09/07 12:06:24;;;;;;;3.65;1.60;;;25.80;99.90;;;;;;5085359;28;20073;-56
2022/09/07 12:08:49;;;;;;;;;;;25.70;99.90;;;;;;5084507;28;20092;-57
2022/09/07 12:11:50;;;;;;;5.88;1.60;;;25.80;99.90;;;;;;5076251;28;20006;-59
2022/09/07 12:14:39;;;;;;;10.10;2.08;;;25.90;99.90;;;;;;5077963;28;20032;-56
2022/09/07 12:17:55;;;;;;;2.85;1.48;;;26.10;99.90;;;;;;5076647;28;20573;-55
2022/09/07 12:20:27;;;;;;;2.05;1.40;;;26.20;99.90;;;;;;5042713;28;20097;-58
2022/09/07 12:23:15;;;;;;;7.53;1.85;;;26.30;99.90;;;;;;5080682;28;20032;-57
2022/09/07 12:25:43;;;;;;;3.70;1.20;;;26.50;99.90;;;;;;5082701;28;20074;-54
2022/09/07 12:28:24;;;;;;;4.18;1.80;;;26.40;99.90;;;;;;5083009;28;20020;-57
2022/09/07 12:31:04;;;;;;;3.05;1.35;;;25.80;99.90;;;;;;5081648;28;20099;-57
2022/09/07 12:33:35;;;;;;;9.48;1.40;;;25.70;99.90;;;;;;5082362;28;20077;-58
2022/09/07 12:36:21;;;;;;;3.45;1.25;;;25.40;99.90;;;;;;5081066;28;20439;-56
2022/09/07 12:39:32;;;;;;;4.53;1.58;;;25.20;99.90;;;;;;5077200;28;20032;-56
2022/09/07 12:42:09;;;;;;;1.80;1.17;;;25.60;99.90;;;;;;5020854;28;20095;-56
2022/09/07 12:44:36;;;;;;;10.68;1.83;;;26.10;99.90;;;;;;5030623;28;20025;-55
2022/09/07 12:47:10;;;;;;;3.03;1.15;;;26.50;99.90;;;;;;5055651;28;20036;-57
2022/09/07 12:49:51;;;;;;;6.10;1.40;;;26.60;99.90;;;;;;5071056;28;20020;-58
2022/09/07 12:52:44;;;;;;;7.82;1.33;;;26.30;99.90;;;;;;5072742;28;20029;-56
2022/09/07 12:55:35;;;;;;;6.18;1.63;;;26.50;99.90;;;;;;5074691;28;20036;-58
2022/09/07 12:58:19;;;;;;;3.40;1.42;;;26.80;99.90;;;;;;5080698;28;20028;-57
2022/09/07 13:01:14;;;;;;;6.35;1.30;;;26.80;99.90;;;;;;5082305;28;20450;-59
2022/09/07 13:04:09;;;;;;;3.22;1.50;;;27.00;99.90;;;;;;5084124;28;20741;-57
2022/09/07 13:06:53;;;;;;;;;;;27.00;99.90;;;;;;5037056;28;20036;-56
2022/09/07 13:09:27;;;;;;;5.60;1.20;;;27.30;99.90;;;;;;5082687;28;19914;-58
2022/09/07 13:11:53;;;;;;;5.35;1.23;;;27.40;99.90;;;;;;5073234;28;20064;-58